Avery, Arkansas
Current Conditions -  °F | °C
As of 8:53 AM on Friday 31 Oct 2014 (Local Time) from KLLQ Reporting Station
Clear Clear  
Wind Chill: 13°   Ceiling: Unl
Heat Index: 13°   Visibility: 10mi
Dew Point:   Wind: 8mph
Humidity: 69%   Direction: 330°NNW
Pressure: 30.12"   Gusts: NA
Location:  33.9283°N, 91.468°W
Report Text: KLLQ 311353Z AUTO 33007KT 10SM CLR 13/07 A3012 RMK AO2 SLP198 T01280072
Loading
Personal Weather Stations






























Interactive Weather Map
Tropical Storm Tracking
New forecast layout! Learn more

10-Day Weather Forecast

Advertisements
Track Severe Weather on mobile